sensor_id;sensor_type;location;lat;lon;timestamp;P1;durP1;ratioP1;P2;durP2;ratioP2
80584;SDS011;70137;56.482;9.154;2024-02-23T00:00:52;0.90;;;0.60;;
80584;SDS011;70137;56.482;9.154;2024-02-23T00:03:18;0.90;;;0.80;;
80584;SDS011;70137;56.482;9.154;2024-02-23T00:05:43;0.60;;;0.50;;
80584;SDS011;70137;56.482;9.154;2024-02-23T00:08:08;0.73;;;0.70;;
80584;SDS011;70137;56.482;9.154;2024-02-23T00:10:34;0.50;;;0.50;;
80584;SDS011;70137;56.482;9.154;2024-02-23T00:13:00;0.60;;;0.60;;
80584;SDS011;70137;56.482;9.154;2024-02-23T00:15:26;1.13;;;0.70;;
80584;SDS011;70137;56.482;9.154;2024-02-23T00:17:51;0.85;;;0.80;;
80584;SDS011;70137;56.482;9.154;2024-02-23T00:20:17;0.80;;;0.70;;
80584;SDS011;70137;56.482;9.154;2024-02-23T00:22:42;1.15;;;0.80;;
80584;SDS011;70137;56.482;9.154;2024-02-23T00:25:07;0.85;;;0.80;;
80584;SDS011;70137;56.482;9.154;2024-02-23T00:27:33;1.40;;;0.88;;
80584;SDS011;70137;56.482;9.154;2024-02-23T00:29:58;0.70;;;0.70;;
80584;SDS011;70137;56.482;9.154;2024-02-23T00:32:24;1.48;;;0.90;;
80584;SDS011;70137;56.482;9.154;2024-02-23T00:34:50;1.92;;;1.48;;
80584;SDS011;70137;56.482;9.154;2024-02-23T00:37:15;3.72;;;1.63;;
80584;SDS011;70137;56.482;9.154;2024-02-23T00:39:41;2.60;;;1.95;;
80584;SDS011;70137;56.482;9.154;2024-02-23T00:42:06;2.35;;;2.00;;
80584;SDS011;70137;56.482;9.154;2024-02-23T00:44:32;3.30;;;2.42;;
80584;SDS011;70137;56.482;9.154;2024-02-23T00:46:58;4.30;;;2.78;;
80584;SDS011;70137;56.482;9.154;2024-02-23T00:49:26;5.05;;;2.83;;
80584;SDS011;70137;56.482;9.154;2024-02-23T00:51:55;5.40;;;3.00;;
80584;SDS011;70137;56.482;9.154;2024-02-23T00:54:20;3.95;;;3.15;;
80584;SDS011;70137;56.482;9.154;2024-02-23T00:56:47;4.97;;;3.80;;
80584;SDS011;70137;56.482;9.154;2024-02-23T00:59:12;4.75;;;3.78;;
80584;SDS011;70137;56.482;9.154;2024-02-23T01:01:38;5.90;;;3.85;;
80584;SDS011;70137;56.482;9.154;2024-02-23T01:04:03;5.50;;;3.42;;
80584;SDS011;70137;56.482;9.154;2024-02-23T01:06:29;4.55;;;3.47;;
80584;SDS011;70137;56.482;9.154;2024-02-23T01:08:54;4.50;;;3.00;;
80584;SDS011;70137;56.482;9.154;2024-02-23T01:11:20;2.92;;;2.35;;
80584;SDS011;70137;56.482;9.154;2024-02-23T01:13:45;3.30;;;2.50;;
80584;SDS011;70137;56.482;9.154;2024-02-23T01:16:10;3.03;;;1.98;;
80584;SDS011;70137;56.482;9.154;2024-02-23T01:18:36;3.67;;;1.70;;
80584;SDS011;70137;56.482;9.154;2024-02-23T01:21:01;2.15;;;1.10;;
80584;SDS011;70137;56.482;9.154;2024-02-23T01:23:26;1.38;;;1.10;;
80584;SDS011;70137;56.482;9.154;2024-02-23T01:25:52;1.98;;;1.55;;
80584;SDS011;70137;56.482;9.154;2024-02-23T01:28:18;2.55;;;2.20;;
80584;SDS011;70137;56.482;9.154;2024-02-23T01:30:43;5.68;;;3.30;;
80584;SDS011;70137;56.482;9.154;2024-02-23T01:33:09;4.57;;;3.15;;
80584;SDS011;70137;56.482;9.154;2024-02-23T01:35:34;4.75;;;3.25;;
80584;SDS011;70137;56.482;9.154;2024-02-23T01:38:01;3.80;;;2.30;;
80584;SDS011;70137;56.482;9.154;2024-02-23T01:40:27;3.47;;;1.98;;
80584;SDS011;70137;56.482;9.154;2024-02-23T01:43:02;1.70;;;1.08;;
80584;SDS011;70137;56.482;9.154;2024-02-23T01:45:31;5.97;;;1.75;;
80584;SDS011;70137;56.482;9.154;2024-02-23T01:47:57;3.28;;;1.65;;
80584;SDS011;70137;56.482;9.154;2024-02-23T01:50:23;15.70;;;1.75;;
80584;SDS011;70137;56.482;9.154;2024-02-23T01:52:50;7.68;;;1.83;;
80584;SDS011;70137;56.482;9.154;2024-02-23T01:55:17;5.05;;;1.73;;
80584;SDS011;70137;56.482;9.154;2024-02-23T01:57:45;4.93;;;1.50;;
80584;SDS011;70137;56.482;9.154;2024-02-23T02:00:11;3.03;;;1.50;;
80584;SDS011;70137;56.482;9.154;2024-02-23T02:02:42;2.40;;;0.93;;
80584;SDS011;70137;56.482;9.154;2024-02-23T02:05:09;4.30;;;1.30;;
80584;SDS011;70137;56.482;9.154;2024-02-23T02:07:35;3.38;;;1.20;;
80584;SDS011;70137;56.482;9.154;2024-02-23T02:10:00;3.95;;;1.05;;
80584;SDS011;70137;56.482;9.154;2024-02-23T02:12:26;4.18;;;1.13;;
80584;SDS011;70137;56.482;9.154;2024-02-23T02:14:52;3.53;;;1.00;;
80584;SDS011;70137;56.482;9.154;2024-02-23T02:17:18;9.02;;;2.17;;
80584;SDS011;70137;56.482;9.154;2024-02-23T02:19:47;3.13;;;0.52;;
80584;SDS011;70137;56.482;9.154;2024-02-23T02:22:14;2.20;;;0.50;;
80584;SDS011;70137;56.482;9.154;2024-02-23T02:24:40;2.53;;;0.30;;
80584;SDS011;70137;56.482;9.154;2024-02-23T02:27:08;4.43;;;0.93;;
80584;SDS011;70137;56.482;9.154;2024-02-23T02:29:35;6.53;;;0.95;;
80584;SDS011;70137;56.482;9.154;2024-02-23T02:32:00;4.82;;;0.80;;
80584;SDS011;70137;56.482;9.154;2024-02-23T02:34:27;3.38;;;0.45;;
80584;SDS011;70137;56.482;9.154;2024-02-23T02:36:55;5.82;;;0.68;;
80584;SDS011;70137;56.482;9.154;2024-02-23T02:39:20;1.60;;;0.40;;
80584;SDS011;70137;56.482;9.154;2024-02-23T02:41:47;3.05;;;0.50;;
80584;SDS011;70137;56.482;9.154;2024-02-23T02:44:13;4.00;;;0.63;;
80584;SDS011;70137;56.482;9.154;2024-02-23T02:46:39;1.45;;;0.52;;
80584;SDS011;70137;56.482;9.154;2024-02-23T02:49:04;3.47;;;0.60;;
80584;SDS011;70137;56.482;9.154;2024-02-23T02:51:30;7.43;;;0.50;;
80584;SDS011;70137;56.482;9.154;2024-02-23T02:53:55;1.90;;;0.45;;
80584;SDS011;70137;56.482;9.154;2024-02-23T02:56:20;4.32;;;0.73;;
80584;SDS011;70137;56.482;9.154;2024-02-23T02:58:46;3.70;;;0.50;;
80584;SDS011;70137;56.482;9.154;2024-02-23T03:01:11;3.90;;;0.50;;
80584;SDS011;70137;56.482;9.154;2024-02-23T03:03:37;3.95;;;0.47;;
80584;SDS011;70137;56.482;9.154;2024-02-23T03:06:02;4.70;;;0.47;;
80584;SDS011;70137;56.482;9.154;2024-02-23T03:08:28;2.83;;;0.50;;
80584;SDS011;70137;56.482;9.154;2024-02-23T03:10:54;2.88;;;0.47;;
80584;SDS011;70137;56.482;9.154;2024-02-23T03:13:19;1.20;;;0.40;;
80584;SDS011;70137;56.482;9.154;2024-02-23T03:15:44;4.05;;;0.38;;
80584;SDS011;70137;56.482;9.154;2024-02-23T03:18:10;1.83;;;0.40;;
80584;SDS011;70137;56.482;9.154;2024-02-23T03:20:35;4.10;;;0.68;;
80584;SDS011;70137;56.482;9.154;2024-02-23T03:23:01;2.85;;;0.30;;
80584;SDS011;70137;56.482;9.154;2024-02-23T03:25:28;4.40;;;0.60;;
80584;SDS011;70137;56.482;9.154;2024-02-23T03:27:54;3.63;;;0.50;;
80584;SDS011;70137;56.482;9.154;2024-02-23T03:30:19;3.97;;;0.57;;
80584;SDS011;70137;56.482;9.154;2024-02-23T03:32:45;4.13;;;0.70;;
80584;SDS011;70137;56.482;9.154;2024-02-23T03:35:12;3.42;;;0.50;;
80584;SDS011;70137;56.482;9.154;2024-02-23T03:37:37;5.43;;;1.10;;
80584;SDS011;70137;56.482;9.154;2024-02-23T03:40:04;6.53;;;0.70;;
80584;SDS011;70137;56.482;9.154;2024-02-23T03:42:30;3.55;;;0.77;;
80584;SDS011;70137;56.482;9.154;2024-02-23T03:44:56;7.38;;;0.60;;
80584;SDS011;70137;56.482;9.154;2024-02-23T03:47:21;1.08;;;0.50;;
80584;SDS011;70137;56.482;9.154;2024-02-23T03:49:46;1.45;;;0.70;;
80584;SDS011;70137;56.482;9.154;2024-02-23T03:52:12;2.50;;;0.30;;
80584;SDS011;70137;56.482;9.154;2024-02-23T03:54:37;2.65;;;0.40;;
80584;SDS011;70137;56.482;9.154;2024-02-23T03:57:06;1.45;;;0.25;;
80584;SDS011;70137;56.482;9.154;2024-02-23T03:59:31;2.42;;;0.50;;
80584;SDS011;70137;56.482;9.154;2024-02-23T04:01:56;5.03;;;0.35;;
80584;SDS011;70137;56.482;9.154;2024-02-23T04:04:22;5.70;;;0.70;;
80584;SDS011;70137;56.482;9.154;2024-02-23T04:06:47;3.38;;;0.50;;
80584;SDS011;70137;56.482;9.154;2024-02-23T04:09:13;5.13;;;0.60;;
80584;SDS011;70137;56.482;9.154;2024-02-23T04:11:38;5.88;;;0.70;;
80584;SDS011;70137;56.482;9.154;2024-02-23T04:14:03;6.65;;;1.05;;
80584;SDS011;70137;56.482;9.154;2024-02-23T04:16:30;10.00;;;1.20;;
80584;SDS011;70137;56.482;9.154;2024-02-23T04:18:56;11.02;;;2.13;;
80584;SDS011;70137;56.482;9.154;2024-02-23T04:21:22;7.18;;;0.82;;
80584;SDS011;70137;56.482;9.154;2024-02-23T04:23:47;5.82;;;1.00;;
80584;SDS011;70137;56.482;9.154;2024-02-23T04:26:13;6.57;;;0.95;;
80584;SDS011;70137;56.482;9.154;2024-02-23T04:28:39;6.10;;;1.10;;
80584;SDS011;70137;56.482;9.154;2024-02-23T04:31:05;8.82;;;1.30;;
80584;SDS011;70137;56.482;9.154;2024-02-23T04:33:30;6.93;;;1.00;;
80584;SDS011;70137;56.482;9.154;2024-02-23T04:35:56;10.48;;;0.98;;
80584;SDS011;70137;56.482;9.154;2024-02-23T04:38:21;6.55;;;0.90;;
80584;SDS011;70137;56.482;9.154;2024-02-23T04:40:46;2.38;;;0.77;;
80584;SDS011;70137;56.482;9.154;2024-02-23T04:43:12;4.53;;;0.80;;
80584;SDS011;70137;56.482;9.154;2024-02-23T04:45:37;7.63;;;0.65;;
80584;SDS011;70137;56.482;9.154;2024-02-23T04:48:03;7.35;;;1.40;;
80584;SDS011;70137;56.482;9.154;2024-02-23T04:50:28;3.20;;;0.43;;
80584;SDS011;70137;56.482;9.154;2024-02-23T04:52:55;1.27;;;0.50;;
80584;SDS011;70137;56.482;9.154;2024-02-23T04:55:21;0.95;;;0.43;;
80584;SDS011;70137;56.482;9.154;2024-02-23T04:57:46;3.10;;;0.70;;
80584;SDS011;70137;56.482;9.154;2024-02-23T05:00:11;0.93;;;0.30;;
80584;SDS011;70137;56.482;9.154;2024-02-23T05:02:37;3.90;;;0.50;;
80584;SDS011;70137;56.482;9.154;2024-02-23T05:05:03;3.30;;;0.60;;
80584;SDS011;70137;56.482;9.154;2024-02-23T05:07:30;0.95;;;0.40;;
80584;SDS011;70137;56.482;9.154;2024-02-23T05:09:56;2.55;;;0.30;;
80584;SDS011;70137;56.482;9.154;2024-02-23T05:12:23;3.85;;;0.32;;
80584;SDS011;70137;56.482;9.154;2024-02-23T05:14:48;4.35;;;0.65;;
80584;SDS011;70137;56.482;9.154;2024-02-23T05:17:13;4.65;;;0.50;;
80584;SDS011;70137;56.482;9.154;2024-02-23T05:19:39;2.92;;;0.30;;
80584;SDS011;70137;56.482;9.154;2024-02-23T05:22:04;2.75;;;0.77;;
80584;SDS011;70137;56.482;9.154;2024-02-23T05:24:29;4.78;;;0.50;;
80584;SDS011;70137;56.482;9.154;2024-02-23T05:26:55;4.57;;;0.65;;
80584;SDS011;70137;56.482;9.154;2024-02-23T05:29:22;3.67;;;0.40;;
80584;SDS011;70137;56.482;9.154;2024-02-23T05:31:49;4.78;;;0.75;;
80584;SDS011;70137;56.482;9.154;2024-02-23T05:34:17;6.05;;;0.60;;
80584;SDS011;70137;56.482;9.154;2024-02-23T05:36:44;2.13;;;0.60;;
80584;SDS011;70137;56.482;9.154;2024-02-23T05:39:10;2.08;;;0.30;;
80584;SDS011;70137;56.482;9.154;2024-02-23T05:41:37;1.10;;;0.40;;
80584;SDS011;70137;56.482;9.154;2024-02-23T05:44:03;2.05;;;0.40;;
80584;SDS011;70137;56.482;9.154;2024-02-23T05:46:30;4.68;;;0.73;;
80584;SDS011;70137;56.482;9.154;2024-02-23T05:49:00;1.45;;;0.32;;
80584;SDS011;70137;56.482;9.154;2024-02-23T05:51:25;6.82;;;1.25;;
80584;SDS011;70137;56.482;9.154;2024-02-23T05:53:51;4.63;;;0.80;;
80584;SDS011;70137;56.482;9.154;2024-02-23T05:56:16;4.93;;;1.02;;
80584;SDS011;70137;56.482;9.154;2024-02-23T05:58:42;14.10;;;1.23;;
80584;SDS011;70137;56.482;9.154;2024-02-23T06:01:07;12.68;;;1.63;;
80584;SDS011;70137;56.482;9.154;2024-02-23T06:03:33;11.23;;;1.40;;
80584;SDS011;70137;56.482;9.154;2024-02-23T06:05:58;5.32;;;1.25;;
80584;SDS011;70137;56.482;9.154;2024-02-23T06:08:24;7.70;;;1.52;;
80584;SDS011;70137;56.482;9.154;2024-02-23T06:10:49;12.35;;;1.92;;
80584;SDS011;70137;56.482;9.154;2024-02-23T06:13:14;11.85;;;2.00;;
80584;SDS011;70137;56.482;9.154;2024-02-23T06:15:40;13.20;;;1.58;;
80584;SDS011;70137;56.482;9.154;2024-02-23T06:18:05;14.43;;;1.95;;
80584;SDS011;70137;56.482;9.154;2024-02-23T06:20:31;11.85;;;1.77;;
80584;SDS011;70137;56.482;9.154;2024-02-23T06:22:57;16.98;;;2.00;;
80584;SDS011;70137;56.482;9.154;2024-02-23T06:25:24;8.95;;;1.73;;
80584;SDS011;70137;56.482;9.154;2024-02-23T06:27:49;16.27;;;1.80;;
80584;SDS011;70137;56.482;9.154;2024-02-23T06:30:14;12.73;;;1.95;;
80584;SDS011;70137;56.482;9.154;2024-02-23T06:32:40;17.90;;;2.03;;
80584;SDS011;70137;56.482;9.154;2024-02-23T06:35:05;7.40;;;1.38;;
80584;SDS011;70137;56.482;9.154;2024-02-23T06:37:32;15.55;;;2.33;;
80584;SDS011;70137;56.482;9.154;2024-02-23T06:39:58;16.88;;;2.10;;
80584;SDS011;70137;56.482;9.154;2024-02-23T06:42:23;8.95;;;1.50;;
80584;SDS011;70137;56.482;9.154;2024-02-23T06:44:49;15.70;;;1.95;;
80584;SDS011;70137;56.482;9.154;2024-02-23T06:47:15;13.55;;;1.92;;
80584;SDS011;70137;56.482;9.154;2024-02-23T06:49:41;10.40;;;1.67;;
80584;SDS011;70137;56.482;9.154;2024-02-23T06:52:08;13.05;;;2.22;;
80584;SDS011;70137;56.482;9.154;2024-02-23T06:54:33;12.85;;;1.67;;
80584;SDS011;70137;56.482;9.154;2024-02-23T06:56:59;11.52;;;1.63;;
80584;SDS011;70137;56.482;9.154;2024-02-23T06:59:24;8.52;;;1.40;;
80584;SDS011;70137;56.482;9.154;2024-02-23T07:01:50;9.07;;;1.02;;
80584;SDS011;70137;56.482;9.154;2024-02-23T07:04:16;7.85;;;1.60;;
80584;SDS011;70137;56.482;9.154;2024-02-23T07:06:42;8.70;;;1.10;;
80584;SDS011;70137;56.482;9.154;2024-02-23T07:09:08;8.25;;;1.00;;
80584;SDS011;70137;56.482;9.154;2024-02-23T07:11:33;5.80;;;0.68;;
80584;SDS011;70137;56.482;9.154;2024-02-23T07:13:59;8.15;;;1.40;;
80584;SDS011;70137;56.482;9.154;2024-02-23T07:16:24;8.65;;;1.05;;
80584;SDS011;70137;56.482;9.154;2024-02-23T07:18:50;3.97;;;1.40;;
80584;SDS011;70137;56.482;9.154;2024-02-23T07:21:18;9.07;;;1.13;;
80584;SDS011;70137;56.482;9.154;2024-02-23T07:23:44;6.55;;;1.02;;
80584;SDS011;70137;56.482;9.154;2024-02-23T07:26:09;10.45;;;1.20;;
80584;SDS011;70137;56.482;9.154;2024-02-23T07:28:34;5.07;;;0.70;;
80584;SDS011;70137;56.482;9.154;2024-02-23T07:31:00;5.75;;;1.20;;
80584;SDS011;70137;56.482;9.154;2024-02-23T07:33:25;12.50;;;1.40;;
80584;SDS011;70137;56.482;9.154;2024-02-23T07:35:50;12.65;;;1.40;;
80584;SDS011;70137;56.482;9.154;2024-02-23T07:38:16;9.60;;;1.40;;
80584;SDS011;70137;56.482;9.154;2024-02-23T07:40:43;8.68;;;1.55;;
80584;SDS011;70137;56.482;9.154;2024-02-23T07:43:09;9.52;;;1.60;;
80584;SDS011;70137;56.482;9.154;2024-02-23T07:45:37;7.00;;;0.88;;
80584;SDS011;70137;56.482;9.154;2024-02-23T07:48:03;9.65;;;1.60;;
80584;SDS011;70137;56.482;9.154;2024-02-23T07:50:29;7.40;;;1.23;;
80584;SDS011;70137;56.482;9.154;2024-02-23T07:52:54;5.75;;;1.20;;
80584;SDS011;70137;56.482;9.154;2024-02-23T07:55:20;14.48;;;1.40;;
80584;SDS011;70137;56.482;9.154;2024-02-23T07:57:45;8.40;;;1.30;;
80584;SDS011;70137;56.482;9.154;2024-02-23T08:00:11;11.60;;;1.13;;
80584;SDS011;70137;56.482;9.154;2024-02-23T08:02:37;12.82;;;1.38;;
80584;SDS011;70137;56.482;9.154;2024-02-23T08:05:03;12.07;;;1.75;;
80584;SDS011;70137;56.482;9.154;2024-02-23T08:07:29;16.35;;;2.30;;
80584;SDS011;70137;56.482;9.154;2024-02-23T08:09:55;10.93;;;1.30;;
80584;SDS011;70137;56.482;9.154;2024-02-23T08:12:22;19.40;;;2.17;;
80584;SDS011;70137;56.482;9.154;2024-02-23T08:14:47;16.15;;;1.92;;
80584;SDS011;70137;56.482;9.154;2024-02-23T08:17:14;14.15;;;2.55;;
80584;SDS011;70137;56.482;9.154;2024-02-23T08:19:39;14.77;;;2.70;;
80584;SDS011;70137;56.482;9.154;2024-02-23T08:22:05;13.88;;;1.80;;
80584;SDS011;70137;56.482;9.154;2024-02-23T08:24:30;12.65;;;1.63;;
80584;SDS011;70137;56.482;9.154;2024-02-23T08:26:56;8.20;;;1.23;;
80584;SDS011;70137;56.482;9.154;2024-02-23T08:29:21;8.82;;;1.50;;
80584;SDS011;70137;56.482;9.154;2024-02-23T08:31:47;8.77;;;1.58;;
80584;SDS011;70137;56.482;9.154;2024-02-23T08:34:13;9.93;;;1.58;;
80584;SDS011;70137;56.482;9.154;2024-02-23T08:36:38;16.70;;;1.77;;
80584;SDS011;70137;56.482;9.154;2024-02-23T08:39:05;16.42;;;1.95;;
80584;SDS011;70137;56.482;9.154;2024-02-23T08:41:31;8.10;;;1.58;;
80584;SDS011;70137;56.482;9.154;2024-02-23T08:43:57;12.25;;;1.95;;
80584;SDS011;70137;56.482;9.154;2024-02-23T08:46:23;15.65;;;2.45;;
80584;SDS011;70137;56.482;9.154;2024-02-23T08:48:48;14.80;;;2.03;;
80584;SDS011;70137;56.482;9.154;2024-02-23T08:51:14;12.00;;;1.23;;
80584;SDS011;70137;56.482;9.154;2024-02-23T08:53:39;9.27;;;1.48;;
80584;SDS011;70137;56.482;9.154;2024-02-23T08:56:06;9.77;;;0.98;;
80584;SDS011;70137;56.482;9.154;2024-02-23T08:58:32;5.75;;;1.80;;
80584;SDS011;70137;56.482;9.154;2024-02-23T09:00:58;13.77;;;1.92;;
80584;SDS011;70137;56.482;9.154;2024-02-23T09:03:23;13.25;;;1.63;;
80584;SDS011;70137;56.482;9.154;2024-02-23T09:05:49;12.20;;;2.25;;
80584;SDS011;70137;56.482;9.154;2024-02-23T09:08:14;14.05;;;1.55;;
80584;SDS011;70137;56.482;9.154;2024-02-23T09:10:40;13.70;;;1.48;;
80584;SDS011;70137;56.482;9.154;2024-02-23T09:13:08;14.40;;;2.00;;
80584;SDS011;70137;56.482;9.154;2024-02-23T09:15:35;17.83;;;1.50;;
80584;SDS011;70137;56.482;9.154;2024-02-23T09:18:01;9.98;;;1.58;;
80584;SDS011;70137;56.482;9.154;2024-02-23T09:20:26;23.27;;;1.77;;
80584;SDS011;70137;56.482;9.154;2024-02-23T09:22:52;10.55;;;1.65;;
80584;SDS011;70137;56.482;9.154;2024-02-23T09:25:18;8.55;;;1.25;;
80584;SDS011;70137;56.482;9.154;2024-02-23T09:27:43;5.53;;;1.08;;
80584;SDS011;70137;56.482;9.154;2024-02-23T09:30:11;9.18;;;1.25;;
80584;SDS011;70137;56.482;9.154;2024-02-23T09:32:38;5.28;;;1.02;;
80584;SDS011;70137;56.482;9.154;2024-02-23T09:35:03;9.43;;;1.15;;
80584;SDS011;70137;56.482;9.154;2024-02-23T09:37:29;13.60;;;1.75;;
80584;SDS011;70137;56.482;9.154;2024-02-23T09:39:55;9.13;;;1.38;;
80584;SDS011;70137;56.482;9.154;2024-02-23T09:42:21;10.25;;;1.67;;
80584;SDS011;70137;56.482;9.154;2024-02-23T09:44:58;9.10;;;0.93;;
80584;SDS011;70137;56.482;9.154;2024-02-23T09:47:26;9.40;;;1.23;;
80584;SDS011;70137;56.482;9.154;2024-02-23T09:49:53;8.18;;;1.55;;
80584;SDS011;70137;56.482;9.154;2024-02-23T09:52:19;11.43;;;1.33;;
80584;SDS011;70137;56.482;9.154;2024-02-23T09:54:46;12.57;;;1.63;;
80584;SDS011;70137;56.482;9.154;2024-02-23T09:57:11;10.20;;;1.83;;
80584;SDS011;70137;56.482;9.154;2024-02-23T09:59:39;9.85;;;1.58;;
80584;SDS011;70137;56.482;9.154;2024-02-23T10:02:07;11.43;;;1.35;;
80584;SDS011;70137;56.482;9.154;2024-02-23T10:04:36;13.25;;;1.52;;
80584;SDS011;70137;56.482;9.154;2024-02-23T10:07:04;14.80;;;2.08;;
80584;SDS011;70137;56.482;9.154;2024-02-23T10:09:29;14.80;;;1.50;;
80584;SDS011;70137;56.482;9.154;2024-02-23T10:11:55;16.85;;;3.80;;
80584;SDS011;70137;56.482;9.154;2024-02-23T10:14:20;8.88;;;2.00;;
80584;SDS011;70137;56.482;9.154;2024-02-23T10:16:46;11.70;;;1.70;;
80584;SDS011;70137;56.482;9.154;2024-02-23T10:19:12;11.68;;;1.50;;
80584;SDS011;70137;56.482;9.154;2024-02-23T10:21:37;12.52;;;1.50;;
80584;SDS011;70137;56.482;9.154;2024-02-23T10:24:04;7.82;;;1.55;;
80584;SDS011;70137;56.482;9.154;2024-02-23T10:26:30;10.38;;;2.15;;
80584;SDS011;70137;56.482;9.154;2024-02-23T10:28:55;7.13;;;1.27;;
80584;SDS011;70137;56.482;9.154;2024-02-23T10:31:21;7.85;;;1.20;;
80584;SDS011;70137;56.482;9.154;2024-02-23T10:33:49;8.48;;;1.20;;
80584;SDS011;70137;56.482;9.154;2024-02-23T10:36:17;5.15;;;1.10;;
80584;SDS011;70137;56.482;9.154;2024-02-23T10:38:44;7.30;;;1.48;;
80584;SDS011;70137;56.482;9.154;2024-02-23T10:41:11;14.77;;;1.98;;
80584;SDS011;70137;56.482;9.154;2024-02-23T10:43:41;10.02;;;2.40;;
80584;SDS011;70137;56.482;9.154;2024-02-23T10:46:11;10.02;;;1.85;;
80584;SDS011;70137;56.482;9.154;2024-02-23T10:48:38;10.23;;;2.00;;
80584;SDS011;70137;56.482;9.154;2024-02-23T10:51:05;10.02;;;1.80;;
80584;SDS011;70137;56.482;9.154;2024-02-23T10:53:32;11.77;;;1.85;;
80584;SDS011;70137;56.482;9.154;2024-02-23T10:55:59;9.73;;;1.85;;
80584;SDS011;70137;56.482;9.154;2024-02-23T10:58:25;16.63;;;2.05;;
80584;SDS011;70137;56.482;9.154;2024-02-23T11:00:50;12.18;;;2.67;;
80584;SDS011;70137;56.482;9.154;2024-02-23T11:03:16;15.35;;;1.88;;
80584;SDS011;70137;56.482;9.154;2024-02-23T11:05:43;17.15;;;2.15;;
80584;SDS011;70137;56.482;9.154;2024-02-23T11:08:12;9.25;;;1.50;;
80584;SDS011;70137;56.482;9.154;2024-02-23T11:10:41;11.40;;;1.58;;
80584;SDS011;70137;56.482;9.154;2024-02-23T11:13:07;9.75;;;2.10;;
80584;SDS011;70137;56.482;9.154;2024-02-23T11:15:33;11.32;;;1.52;;
80584;SDS011;70137;56.482;9.154;2024-02-23T11:18:04;13.88;;;1.95;;
80584;SDS011;70137;56.482;9.154;2024-02-23T11:20:53;13.82;;;2.38;;
80584;SDS011;70137;56.482;9.154;2024-02-23T11:23:20;15.55;;;2.20;;
80584;SDS011;70137;56.482;9.154;2024-02-23T11:26:04;12.30;;;1.67;;
80584;SDS011;70137;56.482;9.154;2024-02-23T11:28:31;15.10;;;2.25;;
80584;SDS011;70137;56.482;9.154;2024-02-23T11:30:57;15.57;;;2.33;;
80584;SDS011;70137;56.482;9.154;2024-02-23T11:33:27;11.00;;;1.98;;
80584;SDS011;70137;56.482;9.154;2024-02-23T11:35:53;10.70;;;1.45;;
80584;SDS011;70137;56.482;9.154;2024-02-23T11:38:29;16.17;;;2.10;;
80584;SDS011;70137;56.482;9.154;2024-02-23T11:40:55;10.77;;;1.95;;
80584;SDS011;70137;56.482;9.154;2024-02-23T11:43:20;16.63;;;1.60;;
80584;SDS011;70137;56.482;9.154;2024-02-23T11:45:46;14.52;;;1.90;;
80584;SDS011;70137;56.482;9.154;2024-02-23T11:48:12;17.77;;;2.05;;
80584;SDS011;70137;56.482;9.154;2024-02-23T11:50:37;10.90;;;2.05;;
80584;SDS011;70137;56.482;9.154;2024-02-23T11:53:03;14.63;;;2.58;;
80584;SDS011;70137;56.482;9.154;2024-02-23T11:55:29;10.55;;;1.65;;
80584;SDS011;70137;56.482;9.154;2024-02-23T11:57:55;8.35;;;1.80;;
80584;SDS011;70137;56.482;9.154;2024-02-23T12:00:20;9.93;;;1.90;;
80584;SDS011;70137;56.482;9.154;2024-02-23T12:02:45;10.50;;;1.63;;
80584;SDS011;70137;56.482;9.154;2024-02-23T12:05:15;4.53;;;1.33;;
80584;SDS011;70137;56.482;9.154;2024-02-23T12:07:41;9.48;;;1.95;;
80584;SDS011;70137;56.482;9.154;2024-02-23T12:10:07;14.73;;;2.38;;
80584;SDS011;70137;56.482;9.154;2024-02-23T12:12:33;14.30;;;2.03;;
80584;SDS011;70137;56.482;9.154;2024-02-23T12:14:58;17.27;;;2.40;;
80584;SDS011;70137;56.482;9.154;2024-02-23T12:17:24;14.80;;;2.40;;
80584;SDS011;70137;56.482;9.154;2024-02-23T12:19:57;11.40;;;1.95;;
80584;SDS011;70137;56.482;9.154;2024-02-23T12:22:24;8.68;;;1.30;;
80584;SDS011;70137;56.482;9.154;2024-02-23T12:24:50;14.52;;;2.22;;
80584;SDS011;70137;56.482;9.154;2024-02-23T12:27:18;10.68;;;1.83;;
80584;SDS011;70137;56.482;9.154;2024-02-23T12:29:51;13.00;;;2.20;;
80584;SDS011;70137;56.482;9.154;2024-02-23T12:32:19;10.23;;;1.20;;
80584;SDS011;70137;56.482;9.154;2024-02-23T12:34:45;14.45;;;3.05;;
80584;SDS011;70137;56.482;9.154;2024-02-23T12:37:14;12.43;;;1.42;;
80584;SDS011;70137;56.482;9.154;2024-02-23T12:39:41;15.68;;;1.42;;
80584;SDS011;70137;56.482;9.154;2024-02-23T12:42:07;8.80;;;1.60;;
80584;SDS011;70137;56.482;9.154;2024-02-23T12:44:32;11.13;;;1.63;;
80584;SDS011;70137;56.482;9.154;2024-02-23T12:46:58;11.45;;;1.30;;
80584;SDS011;70137;56.482;9.154;2024-02-23T12:49:23;8.27;;;1.42;;
80584;SDS011;70137;56.482;9.154;2024-02-23T12:51:48;6.20;;;1.63;;
80584;SDS011;70137;56.482;9.154;2024-02-23T12:54:14;12.45;;;1.75;;
80584;SDS011;70137;56.482;9.154;2024-02-23T12:56:40;11.98;;;1.52;;
80584;SDS011;70137;56.482;9.154;2024-02-23T12:59:05;10.63;;;1.23;;
80584;SDS011;70137;56.482;9.154;2024-02-23T13:01:30;13.60;;;1.58;;
80584;SDS011;70137;56.482;9.154;2024-02-23T13:03:59;12.00;;;1.50;;
80584;SDS011;70137;56.482;9.154;2024-02-23T13:06:25;12.00;;;1.88;;
80584;SDS011;70137;56.482;9.154;2024-02-23T13:08:50;7.55;;;1.10;;
80584;SDS011;70137;56.482;9.154;2024-02-23T13:11:16;9.77;;;1.42;;
80584;SDS011;70137;56.482;9.154;2024-02-23T13:13:41;10.50;;;2.55;;
80584;SDS011;70137;56.482;9.154;2024-02-23T13:16:06;9.48;;;1.55;;
80584;SDS011;70137;56.482;9.154;2024-02-23T13:18:33;11.05;;;1.60;;
80584;SDS011;70137;56.482;9.154;2024-02-23T13:20:59;11.25;;;1.30;;
80584;SDS011;70137;56.482;9.154;2024-02-23T13:23:24;8.68;;;1.38;;
80584;SDS011;70137;56.482;9.154;2024-02-23T13:25:50;13.70;;;1.98;;
80584;SDS011;70137;56.482;9.154;2024-02-23T13:28:15;10.02;;;1.83;;
80584;SDS011;70137;56.482;9.154;2024-02-23T13:30:40;12.70;;;1.42;;
80584;SDS011;70137;56.482;9.154;2024-02-23T13:33:06;11.18;;;1.27;;
80584;SDS011;70137;56.482;9.154;2024-02-23T13:35:33;10.07;;;1.95;;
80584;SDS011;70137;56.482;9.154;2024-02-23T13:37:59;15.50;;;1.92;;
80584;SDS011;70137;56.482;9.154;2024-02-23T13:40:24;8.55;;;1.33;;
80584;SDS011;70137;56.482;9.154;2024-02-23T13:42:50;7.50;;;1.48;;
80584;SDS011;70137;56.482;9.154;2024-02-23T13:45:17;10.05;;;1.95;;
80584;SDS011;70137;56.482;9.154;2024-02-23T13:47:44;7.93;;;1.52;;
80584;SDS011;70137;56.482;9.154;2024-02-23T13:50:21;12.95;;;2.42;;
80584;SDS011;70137;56.482;9.154;2024-02-23T13:52:47;11.07;;;1.63;;
80584;SDS011;70137;56.482;9.154;2024-02-23T13:55:12;10.23;;;1.45;;
80584;SDS011;70137;56.482;9.154;2024-02-23T13:57:39;8.07;;;1.60;;
80584;SDS011;70137;56.482;9.154;2024-02-23T14:00:04;8.35;;;1.98;;
80584;SDS011;70137;56.482;9.154;2024-02-23T14:02:33;15.75;;;2.00;;
80584;SDS011;70137;56.482;9.154;2024-02-23T14:05:00;11.23;;;1.73;;
80584;SDS011;70137;56.482;9.154;2024-02-23T14:07:31;11.43;;;1.67;;
80584;SDS011;70137;56.482;9.154;2024-02-23T14:09:57;9.43;;;1.73;;
80584;SDS011;70137;56.482;9.154;2024-02-23T14:12:22;9.55;;;1.60;;
80584;SDS011;70137;56.482;9.154;2024-02-23T14:14:48;9.60;;;1.33;;
80584;SDS011;70137;56.482;9.154;2024-02-23T14:17:13;7.88;;;1.30;;
80584;SDS011;70137;56.482;9.154;2024-02-23T14:19:39;11.82;;;1.33;;
80584;SDS011;70137;56.482;9.154;2024-02-23T14:22:04;9.95;;;1.65;;
80584;SDS011;70137;56.482;9.154;2024-02-23T14:24:30;7.75;;;1.75;;
80584;SDS011;70137;56.482;9.154;2024-02-23T14:26:55;6.22;;;1.27;;
80584;SDS011;70137;56.482;9.154;2024-02-23T14:29:21;10.13;;;2.13;;
80584;SDS011;70137;56.482;9.154;2024-02-23T14:31:46;11.15;;;1.65;;
80584;SDS011;70137;56.482;9.154;2024-02-23T14:34:11;11.13;;;1.63;;
80584;SDS011;70137;56.482;9.154;2024-02-23T14:36:37;8.63;;;1.38;;